Time;durP1;ratioP1;P1;durP2;ratioP2;P2;SDS_P1;SDS_P2;PMS_P1;PMS_P2;Temp;Humidity;BMP_temperature;BMP_pressure;BME280_temperature;BME280_humidity;BME280_pressure;Samples;Min_cycle;Max_cycle;Signal;HPM_P1;HPM_P2
2022/10/31 00:02:11;;;;;;;6.63;5.38;;;12.20;99.90;;;;;;5023066;28;37772;-79
2022/10/31 00:04:37;;;;;;;6.32;5.05;;;12.20;99.90;;;;;;5020404;28;34882;-77
2022/10/31 00:07:03;;;;;;;10.02;6.10;;;12.20;99.90;;;;;;5027381;28;37330;-78
2022/10/31 00:09:29;;;;;;;11.18;5.43;;;12.20;99.90;;;;;;5024994;28;38386;-79
2022/10/31 00:11:55;;;;;;;12.35;6.53;;;12.10;99.90;;;;;;5028413;28;38968;-77
2022/10/31 00:14:21;;;;;;;10.38;6.47;;;12.10;99.90;;;;;;5022063;28;36503;-78
2022/10/31 00:16:47;;;;;;;9.82;6.03;;;12.00;99.90;;;;;;5044612;28;35671;-78
2022/10/31 00:19:13;;;;;;;12.43;7.18;;;11.90;99.90;;;;;;5031282;28;38407;-78
2022/10/31 00:21:39;;;;;;;9.80;6.57;;;11.80;99.90;;;;;;5017788;28;37360;-79
2022/10/31 00:24:06;;;;;;;10.68;6.60;;;11.70;99.90;;;;;;5027528;28;37549;-78
2022/10/31 00:26:32;;;;;;;10.30;6.57;;;11.80;99.90;;;;;;5027187;28;36355;-79
2022/10/31 00:28:59;;;;;;;8.70;5.55;;;11.80;99.90;;;;;;5033651;28;38899;-79
2022/10/31 00:31:25;;;;;;;11.68;7.05;;;11.80;99.90;;;;;;5031435;28;38340;-78
2022/10/31 00:33:51;;;;;;;10.63;7.18;;;11.70;99.90;;;;;;5027815;28;36219;-78
2022/10/31 00:36:20;;;;;;;14.85;7.68;;;11.70;99.90;;;;;;5027889;28;37450;-78
2022/10/31 00:38:48;;;;;;;23.98;8.63;;;11.90;99.90;;;;;;5030908;28;38402;-78
2022/10/31 00:41:16;;;;;;;12.25;8.80;;;12.00;99.90;;;;;;5028701;28;38804;-78
2022/10/31 00:43:43;;;;;;;14.40;8.15;;;12.00;99.90;;;;;;5035109;28;37967;-78
2022/10/31 00:46:10;;;;;;;11.85;7.70;;;11.90;99.90;;;;;;5025290;28;36288;-77
2022/10/31 00:48:36;;;;;;;12.45;7.50;;;11.70;99.90;;;;;;5033619;28;38582;-78
2022/10/31 00:51:02;;;;;;;11.93;7.70;;;11.70;99.90;;;;;;5030384;28;36999;-78
2022/10/31 00:53:28;;;;;;;18.20;9.35;;;11.70;99.90;;;;;;5023961;28;37984;-78
2022/10/31 00:55:55;;;;;;;12.32;9.30;;;11.80;99.90;;;;;;5027342;28;36450;-77
2022/10/31 00:58:21;;;;;;;11.98;9.00;;;11.70;99.90;;;;;;5033288;28;37397;-77
2022/10/31 01:00:54;;;;;;;12.43;10.25;;;11.50;99.90;;;;;;5038769;28;39595;-78
2022/10/31 01:03:25;;;;;;;12.30;9.25;;;11.40;99.90;;;;;;5025794;28;37295;-78
2022/10/31 01:06:00;;;;;;;11.90;8.18;;;11.20;99.90;;;;;;5034029;28;38379;-78
2022/10/31 01:08:26;;;;;;;11.80;8.50;;;11.10;99.90;;;;;;5027923;28;39529;-78
2022/10/31 01:11:11;;;;;;;15.82;9.82;;;11.00;99.90;;;;;;5029499;28;37895;-78
2022/10/31 01:13:38;;;;;;;11.35;8.85;;;10.90;99.90;;;;;;5027434;28;48719;-78
2022/10/31 01:16:06;;;;;;;10.95;9.05;;;10.80;99.90;;;;;;5030512;28;36969;-78
2022/10/31 01:18:33;;;;;;;12.13;8.55;;;10.80;99.90;;;;;;5033192;28;47003;-78
2022/10/31 01:21:09;;;;;;;13.67;8.97;;;10.70;99.90;;;;;;5023620;28;37232;-79
2022/10/31 01:23:36;;;;;;;13.27;9.30;;;10.60;99.90;;;;;;5025223;28;48269;-78
2022/10/31 01:26:14;;;;;;;15.73;10.13;;;10.50;99.90;;;;;;5030141;28;37320;-78
2022/10/31 01:28:55;;;;;;;13.40;9.07;;;10.40;99.90;;;;;;5023329;28;47210;-78
2022/10/31 01:31:24;;;;;;;13.50;9.43;;;10.40;99.90;;;;;;5023874;28;37746;-78
2022/10/31 01:33:50;;;;;;;12.37;9.40;;;10.30;99.90;;;;;;5023761;28;37979;-78
2022/10/31 01:36:27;;;;;;;17.00;10.20;;;10.30;99.90;;;;;;5019844;28;37582;-78
2022/10/31 01:38:56;;;;;;;14.83;9.13;;;10.20;99.90;;;;;;5017482;28;38835;-79
2022/10/31 01:41:25;;;;;;;11.83;9.17;;;10.20;99.90;;;;;;5021938;28;37486;-78
2022/10/31 01:43:55;;;;;;;15.27;10.10;;;10.20;99.90;;;;;;5024399;28;38273;-78
2022/10/31 01:46:29;;;;;;;10.30;8.00;;;10.10;99.90;;;;;;5019376;28;37145;-78
2022/10/31 01:48:58;;;;;;;13.27;9.10;;;10.10;99.90;;;;;;5031188;28;37420;-77
2022/10/31 01:51:30;;;;;;;13.00;9.80;;;10.00;99.90;;;;;;5031479;28;38681;-78
2022/10/31 01:54:01;;;;;;;15.70;9.83;;;9.90;99.90;;;;;;5019790;28;38025;-78
2022/10/31 01:56:27;;;;;;;13.37;9.03;;;9.80;99.90;;;;;;5034346;28;36187;-78
2022/10/31 01:58:56;;;;;;;12.30;9.53;;;9.80;99.90;;;;;;5024061;28;38901;-77
2022/10/31 02:03:58;;;;;;;10.77;9.37;;;9.70;99.90;;;;;;4616714;23;20053;-76
2022/10/31 02:06:38;;;;;;;13.17;9.47;;;9.70;99.90;;;;;;5041541;28;37313;-77
2022/10/31 02:09:05;;;;;;;14.70;10.40;;;9.70;99.90;;;;;;5024010;28;38830;-77
2022/10/31 02:11:34;;;;;;;13.80;9.17;;;9.70;99.90;;;;;;5026240;28;38814;-77
2022/10/31 02:14:02;;;;;;;16.23;10.97;;;9.60;99.90;;;;;;5024371;28;37808;-77
2022/10/31 02:16:28;;;;;;;8.80;7.90;;;9.60;99.90;;;;;;5031343;28;48657;-78
2022/10/31 02:18:55;;;;;;;13.37;9.20;;;9.50;99.90;;;;;;5028916;28;39896;-78
2022/10/31 02:21:45;;;;;;;16.27;10.87;;;9.50;99.90;;;;;;5029812;28;38569;-78
2022/10/31 02:24:37;;;;;;;12.87;10.63;;;9.50;99.90;;;;;;5029301;28;37825;-78
2022/10/31 02:27:26;;;;;;;10.88;9.38;;;9.50;99.90;;;;;;5024907;28;36088;-78
2022/10/31 02:29:52;;;;;;;15.13;9.63;;;9.40;99.90;;;;;;5044322;28;37518;-77
2022/10/31 02:32:38;;;;;;;10.23;8.50;;;9.40;99.90;;;;;;5026735;28;39078;-76
2022/10/31 02:35:43;;;;;;;14.60;10.77;;;9.40;99.90;;;;;;5042042;28;38065;-76
2022/10/31 02:38:14;;;;;;;13.13;9.90;;;9.40;99.90;;;;;;5022599;28;38060;-77
2022/10/31 02:40:52;;;;;;;13.33;10.37;;;9.30;99.90;;;;;;5029472;28;37107;-77
2022/10/31 02:43:49;;;;;;;14.60;10.63;;;9.30;99.90;;;;;;5029005;28;38968;-78
2022/10/31 02:46:28;;;;;;;18.63;9.73;;;9.20;99.90;;;;;;5045795;28;37526;-78
2022/10/31 02:48:59;;;;;;;18.77;11.53;;;9.20;99.90;;;;;;5031237;28;36938;-77
2022/10/31 02:51:26;;;;;;;13.50;10.87;;;9.20;99.90;;;;;;5045887;28;37749;-77
2022/10/31 02:53:52;;;;;;;19.07;11.07;;;9.20;99.90;;;;;;5031406;28;37801;-77
2022/10/31 02:56:19;;;;;;;13.90;10.77;;;9.20;99.90;;;;;;5037169;28;38605;-77
2022/10/31 02:58:52;;;;;;;14.77;9.83;;;9.10;99.90;;;;;;5032543;28;38463;-77
2022/10/31 03:01:41;;;;;;;15.15;10.90;;;9.00;99.90;;;;;;5032495;28;39953;-77
2022/10/31 03:04:31;;;;;;;13.43;10.47;;;9.10;99.90;;;;;;5034845;28;38258;-77
2022/10/31 03:07:18;;;;;;;16.07;11.80;;;9.00;99.90;;;;;;5033587;28;38092;-78
2022/10/31 03:10:19;;;;;;;14.67;12.20;;;9.00;99.90;;;;;;5028118;28;47237;-77
2022/10/31 03:13:10;;;;;;;18.03;11.77;;;8.90;99.90;;;;;;5033303;28;49234;-78
2022/10/31 03:15:44;;;;;;;13.50;11.63;;;8.90;99.90;;;;;;5025245;28;46658;-78
2022/10/31 03:18:32;;;;;;;19.63;11.43;;;8.90;99.90;;;;;;5033631;28;37283;-78
2022/10/31 03:21:14;;;;;;;16.17;11.30;;;8.90;99.90;;;;;;5034652;28;36939;-78
2022/10/31 03:23:43;;;;;;;16.97;12.00;;;8.80;99.90;;;;;;5033071;28;48805;-78
2022/10/31 03:26:12;;;;;;;15.53;12.07;;;8.80;99.90;;;;;;5033135;28;37855;-78
2022/10/31 03:28:48;;;;;;;19.50;12.87;;;8.80;99.90;;;;;;5044240;28;36835;-78
2022/10/31 03:31:17;;;;;;;15.87;12.80;;;8.80;99.90;;;;;;5029792;28;36571;-78
2022/10/31 03:33:45;;;;;;;17.13;12.33;;;8.80;99.90;;;;;;5028331;28;38667;-78
2022/10/31 03:36:15;;;;;;;17.57;12.83;;;8.80;99.90;;;;;;5032053;28;38730;-78
2022/10/31 03:38:43;;;;;;;20.97;13.60;;;8.80;99.90;;;;;;5047814;28;38875;-78
2022/10/31 03:41:16;;;;;;;18.67;12.67;;;8.80;99.90;;;;;;5031309;28;37483;-78
2022/10/31 03:43:50;;;;;;;14.67;11.53;;;8.80;99.90;;;;;;5048726;28;37280;-78
2022/10/31 03:46:17;;;;;;;17.00;13.53;;;8.70;99.90;;;;;;5049561;28;37147;-78
2022/10/31 03:48:43;;;;;;;17.43;13.33;;;8.70;99.90;;;;;;5041504;28;37840;-78
2022/10/31 03:51:22;;;;;;;20.20;13.73;;;8.70;99.90;;;;;;5020254;28;37138;-78
2022/10/31 03:54:06;;;;;;;19.30;14.00;;;8.70;99.90;;;;;;5022479;28;36746;-77
2022/10/31 03:56:37;;;;;;;19.13;14.00;;;8.70;99.90;;;;;;5034800;28;47278;-78
2022/10/31 03:59:26;;;;;;;20.17;14.23;;;8.70;99.90;;;;;;5029625;28;37844;-77
2022/10/31 04:01:57;;;;;;;21.17;13.60;;;8.70;99.90;;;;;;5028481;28;36213;-78
2022/10/31 04:04:25;;;;;;;16.17;12.03;;;8.70;99.90;;;;;;5043415;28;36932;-78
2022/10/31 04:06:53;;;;;;;21.23;15.47;;;8.70;99.90;;;;;;5044103;28;37540;-78
2022/10/31 04:09:20;;;;;;;18.37;13.97;;;8.70;99.90;;;;;;5027487;28;38381;-78
2022/10/31 04:11:52;;;;;;;19.43;14.43;;;8.70;99.90;;;;;;5029200;28;37382;-78
2022/10/31 04:14:20;;;;;;;25.67;15.45;;;8.60;99.90;;;;;;5026295;28;38445;-78
2022/10/31 04:16:46;;;;;;;21.37;14.87;;;8.60;99.90;;;;;;5025770;28;39397;-78
2022/10/31 04:19:12;;;;;;;22.30;14.20;;;8.60;99.90;;;;;;5028194;28;39062;-77
2022/10/31 04:21:38;;;;;;;19.83;14.33;;;8.60;99.90;;;;;;5028156;28;38340;-77
2022/10/31 04:24:05;;;;;;;19.00;15.30;;;8.60;99.90;;;;;;5027833;28;39446;-76
2022/10/31 04:26:31;;;;;;;21.90;14.30;;;8.60;99.90;;;;;;5027628;28;38665;-77
2022/10/31 04:28:57;;;;;;;21.97;15.13;;;8.60;99.90;;;;;;5030071;28;37150;-78
2022/10/31 04:31:23;;;;;;;26.30;15.80;;;8.60;99.90;;;;;;5047471;28;36332;-78
2022/10/31 04:33:49;;;;;;;23.03;16.40;;;8.60;99.90;;;;;;5029611;28;38407;-77
2022/10/31 04:36:15;;;;;;;21.23;16.17;;;8.60;99.90;;;;;;5025162;28;39404;-78
2022/10/31 04:38:41;;;;;;;21.97;16.03;;;8.50;99.90;;;;;;5019130;28;38332;-78
2022/10/31 04:41:07;;;;;;;21.50;16.97;;;8.50;99.90;;;;;;5027815;28;37252;-78
2022/10/31 04:43:33;;;;;;;20.67;16.23;;;8.50;99.90;;;;;;5037444;28;39657;-78
2022/10/31 04:45:59;;;;;;;22.90;15.80;;;8.50;99.90;;;;;;5022786;28;38925;-78
2022/10/31 04:48:25;;;;;;;21.67;14.93;;;8.50;99.90;;;;;;5031877;28;38889;-77
2022/10/31 04:50:52;;;;;;;18.60;14.13;;;8.40;99.90;;;;;;5023474;28;38169;-77
2022/10/31 04:53:18;;;;;;;21.47;15.17;;;8.40;99.90;;;;;;5033238;28;38999;-77
2022/10/31 04:55:44;;;;;;;24.53;17.00;;;8.40;99.90;;;;;;5024878;28;38700;-78
2022/10/31 04:58:10;;;;;;;19.47;14.83;;;8.40;99.90;;;;;;5020039;28;37022;-78
2022/10/31 05:00:36;;;;;;;19.27;14.07;;;8.50;99.90;;;;;;5041451;28;36316;-78
2022/10/31 05:03:02;;;;;;;15.27;12.03;;;8.50;99.90;;;;;;5043745;28;37695;-78
2022/10/31 05:05:30;;;;;;;22.77;16.73;;;8.50;99.90;;;;;;5025572;28;39210;-77
2022/10/31 05:07:57;;;;;;;24.30;16.40;;;8.40;99.90;;;;;;5025130;28;37833;-78
2022/10/31 05:10:25;;;;;;;21.57;17.33;;;8.40;99.90;;;;;;5027956;28;37680;-77
2022/10/31 05:12:53;;;;;;;23.13;17.33;;;8.40;99.90;;;;;;5021303;28;39246;-78
2022/10/31 05:15:21;;;;;;;24.70;17.07;;;8.40;99.90;;;;;;5022326;28;38698;-78
2022/10/31 05:17:48;;;;;;;26.93;17.13;;;8.40;99.90;;;;;;5042455;28;37262;-79
2022/10/31 05:20:16;;;;;;;25.53;17.83;;;8.40;99.90;;;;;;5022665;28;37460;-78
2022/10/31 05:22:47;;;;;;;23.30;17.30;;;8.40;99.90;;;;;;5037916;28;38988;-78
2022/10/31 05:25:14;;;;;;;22.90;16.90;;;8.30;99.90;;;;;;5024121;28;38640;-78
2022/10/31 05:27:46;;;;;;;22.33;16.63;;;8.30;99.90;;;;;;5042477;28;36815;-78
2022/10/31 05:30:14;;;;;;;25.80;18.43;;;8.30;99.90;;;;;;5023181;28;37319;-78
2022/10/31 05:32:45;;;;;;;26.60;17.50;;;8.30;99.90;;;;;;5022450;28;38226;-79
2022/10/31 05:35:14;;;;;;;23.87;16.93;;;8.20;99.90;;;;;;5018775;28;38717;-78
2022/10/31 05:37:40;;;;;;;27.33;18.93;;;8.20;99.90;;;;;;5018784;28;38114;-78
2022/10/31 05:40:09;;;;;;;21.77;17.03;;;8.30;99.90;;;;;;5024660;28;36350;-78
2022/10/31 05:42:35;;;;;;;22.30;17.60;;;8.30;99.90;;;;;;5023581;28;38536;-78
2022/10/31 05:45:01;;;;;;;26.40;19.10;;;8.30;99.90;;;;;;5023288;28;38663;-78
2022/10/31 05:47:27;;;;;;;26.97;18.30;;;8.20;99.90;;;;;;5022648;28;38431;-78
2022/10/31 05:49:53;;;;;;;28.80;20.73;;;8.20;99.90;;;;;;5023623;28;38034;-77
2022/10/31 05:52:20;;;;;;;24.80;19.43;;;8.20;99.90;;;;;;5023507;28;38926;-78
2022/10/31 05:54:46;;;;;;;24.80;19.60;;;8.20;99.90;;;;;;5024791;28;38249;-78
2022/10/31 05:57:12;;;;;;;25.60;18.27;;;8.20;99.90;;;;;;5031538;28;37981;-77
2022/10/31 05:59:38;;;;;;;25.73;18.70;;;8.20;99.90;;;;;;5024675;28;37433;-78
2022/10/31 06:02:04;;;;;;;25.30;18.47;;;8.20;99.90;;;;;;5036128;28;38411;-78
2022/10/31 06:04:30;;;;;;;30.07;20.50;;;8.20;99.90;;;;;;5021269;28;38841;-78
2022/10/31 06:06:57;;;;;;;27.30;21.03;;;8.20;99.90;;;;;;5022492;28;38631;-78
2022/10/31 06:09:23;;;;;;;27.40;20.37;;;8.20;99.90;;;;;;5021798;28;36529;-78
2022/10/31 06:11:49;;;;;;;28.03;18.83;;;8.20;99.90;;;;;;5023168;28;38742;-79
2022/10/31 06:14:15;;;;;;;29.63;21.50;;;8.20;99.90;;;;;;5024447;28;38805;-78
2022/10/31 06:16:41;;;;;;;32.30;20.70;;;8.10;99.90;;;;;;5023957;28;38156;-78
2022/10/31 06:19:07;;;;;;;41.83;21.83;;;8.10;99.90;;;;;;5025162;28;37403;-78
2022/10/31 06:21:33;;;;;;;38.20;21.20;;;8.10;99.90;;;;;;5024621;28;38378;-78
2022/10/31 06:23:59;;;;;;;47.40;24.17;;;8.10;99.90;;;;;;5026217;28;38239;-78
2022/10/31 06:26:25;;;;;;;43.97;24.00;;;8.10;99.90;;;;;;5024866;28;36769;-79
2022/10/31 06:28:51;;;;;;;43.13;22.50;;;8.20;99.90;;;;;;5020883;28;38742;-79
2022/10/31 06:31:17;;;;;;;38.23;21.00;;;8.20;99.90;;;;;;5025466;28;39627;-78
2022/10/31 06:33:44;;;;;;;35.23;21.10;;;8.20;99.90;;;;;;5025621;28;38408;-79
2022/10/31 06:36:10;;;;;;;39.40;22.60;;;8.30;99.90;;;;;;5026174;28;36947;-78
2022/10/31 06:38:36;;;;;;;35.00;21.97;;;8.30;99.90;;;;;;5022604;28;36097;-79
2022/10/31 06:41:04;;;;;;;39.27;24.63;;;8.40;99.90;;;;;;5035955;28;38516;-78
2022/10/31 06:43:30;;;;;;;34.27;22.13;;;8.40;99.90;;;;;;5024917;28;49267;-78
2022/10/31 06:45:56;;;;;;;37.13;23.50;;;8.50;99.90;;;;;;5028833;28;37931;-78
2022/10/31 06:48:23;;;;;;;40.93;23.63;;;8.50;99.90;;;;;;5022382;28;37674;-79
2022/10/31 06:50:49;;;;;;;47.47;26.60;;;8.60;99.90;;;;;;5042396;28;37839;-78
2022/10/31 06:53:15;;;;;;;60.63;26.50;;;8.60;99.90;;;;;;5022028;28;38367;-78
2022/10/31 06:55:42;;;;;;;72.70;29.07;;;8.70;99.90;;;;;;5008213;28;39110;-78
2022/10/31 06:58:10;;;;;;;67.10;31.67;;;8.80;99.90;;;;;;5027226;28;38360;-78
2022/10/31 07:00:36;;;;;;;63.27;28.33;;;8.80;99.90;;;;;;5027407;28;38439;-78
2022/10/31 07:03:09;;;;;;;72.50;31.67;;;8.90;99.90;;;;;;5022829;28;38683;-78
2022/10/31 07:05:35;;;;;;;60.70;30.53;;;9.00;99.90;;;;;;5043488;28;46845;-79
2022/10/31 07:08:05;;;;;;;61.13;30.57;;;9.10;99.90;;;;;;5032569;28;35132;-78
2022/10/31 07:10:33;;;;;;;84.77;37.17;;;9.20;99.90;;;;;;5039997;28;47113;-79
2022/10/31 07:13:05;;;;;;;181.43;46.77;;;9.30;99.90;;;;;;5026751;28;38295;-79
2022/10/31 07:15:36;;;;;;;63.28;35.08;;;9.50;99.90;;;;;;5030272;28;49199;-78
2022/10/31 07:18:04;;;;;;;87.63;29.17;;;9.70;99.90;;;;;;5022222;28;36894;-79
2022/10/31 07:20:31;;;;;;;66.87;30.17;;;9.80;99.90;;;;;;5030119;28;48717;-78
2022/10/31 07:22:57;;;;;;;61.93;30.37;;;10.00;99.90;;;;;;5046501;28;36605;-78
2022/10/31 07:25:24;;;;;;;43.90;27.10;;;10.00;99.90;;;;;;5033646;28;37002;-78
2022/10/31 07:27:50;;;;;;;39.17;29.85;;;10.10;99.90;;;;;;5030482;28;36430;-78
2022/10/31 07:30:18;;;;;;;52.03;26.38;;;10.20;99.90;;;;;;5022602;28;37527;-79
2022/10/31 07:32:45;;;;;;;63.10;34.47;;;10.30;99.90;;;;;;5025621;28;37472;-78
2022/10/31 07:35:17;;;;;;;37.10;28.00;;;10.30;99.90;;;;;;5028649;28;37741;-78
2022/10/31 07:37:43;;;;;;;76.90;29.13;;;10.30;99.90;;;;;;5033009;28;38021;-79
2022/10/31 07:40:10;;;;;;;34.53;26.58;;;10.40;99.90;;;;;;5032591;28;37773;-78
2022/10/31 07:42:37;;;;;;;67.20;34.37;;;10.50;99.90;;;;;;5027784;28;37295;-78
2022/10/31 07:45:05;;;;;;;40.63;28.77;;;10.50;99.90;;;;;;5034805;28;38399;-78
2022/10/31 07:47:42;;;;;;;34.13;26.50;;;10.50;99.90;;;;;;5028647;28;46390;-78
2022/10/31 07:50:12;;;;;;;39.47;26.50;;;10.50;99.90;;;;;;5047885;28;38652;-78
2022/10/31 07:52:38;;;;;;;34.10;25.48;;;10.50;99.90;;;;;;5035111;28;37028;-78
2022/10/31 07:55:06;;;;;;;53.17;26.48;;;10.50;99.90;;;;;;5036962;28;37654;-78
2022/10/31 07:57:32;;;;;;;40.33;27.10;;;10.50;99.90;;;;;;5034412;28;37032;-78
2022/10/31 07:59:59;;;;;;;49.28;29.40;;;10.50;99.90;;;;;;5045010;28;37678;-78
2022/10/31 08:02:25;;;;;;;35.88;25.02;;;10.50;99.90;;;;;;5034096;28;38030;-78
2022/10/31 08:04:52;;;;;;;41.83;23.00;;;10.60;99.90;;;;;;5037429;28;36918;-78
2022/10/31 08:07:18;;;;;;;64.43;28.80;;;10.60;99.90;;;;;;5037178;28;38453;-78
2022/10/31 08:09:44;;;;;;;94.88;32.28;;;10.60;99.90;;;;;;5036691;28;39508;-78
2022/10/31 08:12:10;;;;;;;85.70;28.67;;;10.60;99.90;;;;;;5048916;28;37760;-78
2022/10/31 08:14:36;;;;;;;77.95;27.73;;;10.70;99.90;;;;;;5035197;28;38920;-78
2022/10/31 08:17:02;;;;;;;40.00;24.50;;;10.70;99.90;;;;;;5051994;28;37095;-79
2022/10/31 08:19:28;;;;;;;27.63;22.40;;;10.70;99.90;;;;;;5032192;28;46734;-79
2022/10/31 08:21:55;;;;;;;34.30;25.90;;;10.80;99.90;;;;;;5027384;28;38150;-79
2022/10/31 08:24:21;;;;;;;40.08;26.85;;;10.80;99.90;;;;;;5034253;28;37864;-79
2022/10/31 08:26:48;;;;;;;39.72;24.95;;;10.80;99.90;;;;;;5047778;28;36701;-78
2022/10/31 08:29:14;;;;;;;60.28;34.05;;;10.90;99.90;;;;;;5028184;28;38374;-79
2022/10/31 08:31:41;;;;;;;58.85;35.35;;;11.00;99.90;;;;;;5047229;28;39178;-78
2022/10/31 08:34:07;;;;;;;57.50;32.78;;;11.10;99.90;;;;;;5032061;28;39869;-78
2022/10/31 08:36:34;;;;;;;59.35;34.17;;;11.10;99.90;;;;;;5031858;28;36992;-79
2022/10/31 08:39:00;;;;;;;69.80;36.45;;;11.10;99.90;;;;;;5029846;28;39198;-78
2022/10/31 08:41:26;;;;;;;42.80;29.58;;;11.20;99.90;;;;;;5034776;28;37182;-77
2022/10/31 08:43:52;;;;;;;61.00;36.75;;;11.20;99.90;;;;;;5036422;28;39038;-78
2022/10/31 08:46:18;;;;;;;43.30;29.25;;;11.30;99.90;;;;;;5031986;28;37501;-79
2022/10/31 08:48:48;;;;;;;43.20;29.45;;;11.40;99.90;;;;;;5033132;28;38886;-79
2022/10/31 08:51:14;;;;;;;82.55;44.58;;;11.40;99.90;;;;;;5031691;28;38823;-78
2022/10/31 08:53:40;;;;;;;55.42;37.03;;;11.60;99.90;;;;;;5031870;28;37046;-79
2022/10/31 08:56:06;;;;;;;41.85;30.52;;;11.60;99.90;;;;;;5030523;28;37868;-79
2022/10/31 08:58:32;;;;;;;49.20;32.65;;;11.70;99.90;;;;;;5031509;28;37446;-80
2022/10/31 09:01:00;;;;;;;54.47;35.85;;;11.80;99.90;;;;;;5029352;28;38550;-80
2022/10/31 09:03:30;;;;;;;67.55;38.45;;;11.90;99.90;;;;;;5045119;28;37056;-80
2022/10/31 09:06:02;;;;;;;47.38;33.85;;;12.00;99.90;;;;;;5036509;28;37370;-79
2022/10/31 09:08:32;;;;;;;59.78;36.38;;;12.00;99.90;;;;;;5029371;28;38092;-80
2022/10/31 09:10:59;;;;;;;48.75;31.80;;;12.00;99.90;;;;;;5049932;28;37243;-80
2022/10/31 09:13:25;;;;;;;51.17;33.65;;;12.10;99.90;;;;;;5044828;28;38238;-83
2022/10/31 09:15:52;;;;;;;53.92;33.75;;;12.10;99.90;;;;;;5047321;28;36783;-82
2022/10/31 09:18:21;;;;;;;53.53;34.33;;;12.10;99.90;;;;;;5038985;28;38550;-82
2022/10/31 09:20:48;;;;;;;45.20;31.08;;;12.10;99.90;;;;;;5115415;22;36741;-81
2022/10/31 09:23:17;;;;;;;43.45;28.90;;;12.20;99.90;;;;;;4999063;28;38939;-81
2022/10/31 09:25:46;;;;;;;59.67;35.33;;;12.30;99.90;;;;;;4994142;28;36494;-81
2022/10/31 09:28:16;;;;;;;51.65;33.78;;;12.50;99.90;;;;;;4995417;28;39301;-80
2022/10/31 09:30:48;;;;;;;44.15;31.67;;;12.60;99.90;;;;;;4993738;28;38925;-81
2022/10/31 09:33:15;;;;;;;55.78;34.78;;;12.70;99.90;;;;;;4995140;28;37416;-81
2022/10/31 09:35:42;;;;;;;53.30;35.72;;;12.90;99.90;;;;;;4994436;28;36378;-79
2022/10/31 09:38:16;;;;;;;51.55;32.88;;;12.90;99.90;;;;;;4989742;28;37800;-80
2022/10/31 09:40:45;;;;;;;53.08;33.20;;;13.00;99.90;;;;;;4995423;28;39966;-80
2022/10/31 09:44:00;;;;;;;40.92;29.02;;;13.20;99.90;;;;;;4994112;28;37995;-80
2022/10/31 09:46:56;;;;;;;42.25;27.95;;;13.30;99.90;;;;;;4966370;28;36480;-81
2022/10/31 09:49:57;;;;;;;45.03;29.85;;;13.30;99.90;;;;;;5069923;23;40507;-80
2022/10/31 09:52:38;;;;;;;41.45;28.55;;;13.50;99.90;;;;;;5063161;28;38759;-80
2022/10/31 09:55:19;;;;;;;44.10;29.17;;;13.50;99.90;;;;;;5025832;28;38996;-79
2022/10/31 09:57:46;;;;;;;51.35;34.22;;;13.50;99.90;;;;;;5035154;28;48942;-82
2022/10/31 10:00:21;;;;;;;41.33;27.48;;;13.60;99.90;;;;;;5040661;28;39417;-80
2022/10/31 10:03:10;;;;;;;44.75;28.77;;;13.50;99.90;;;;;;5031943;28;38200;-80
2022/10/31 10:05:48;;;;;;;36.35;26.52;;;13.50;99.90;;;;;;5031292;28;50054;-80
2022/10/31 10:08:20;;;;;;;40.85;26.63;;;13.50;99.90;;;;;;5031976;28;36191;-79
2022/10/31 10:11:12;;;;;;;36.88;26.48;;;13.60;99.90;;;;;;5030185;28;38853;-80
2022/10/31 10:13:59;;;;;;;38.17;26.38;;;13.80;99.90;;;;;;5035018;28;48860;-80
2022/10/31 10:16:40;;;;;;;38.65;25.50;;;13.90;99.90;;;;;;5046481;28;37251;-80
2022/10/31 10:19:30;;;;;;;41.22;25.80;;;14.10;99.90;;;;;;5049485;28;38115;-80
2022/10/31 10:22:23;;;;;;;32.83;23.63;;;14.30;99.90;;;;;;5067075;28;37766;-81
2022/10/31 10:25:01;;;;;;;;;;;14.40;99.90;;;;;;5057990;28;47191;-80
2022/10/31 10:27:54;;;;;;;35.10;21.95;;;14.50;99.90;;;;;;5048937;28;40603;-80
2022/10/31 10:30:42;;;;;;;37.92;24.10;;;14.60;99.90;;;;;;5054480;28;38179;-82
2022/10/31 10:36:41;;;;;;;32.88;21.60;;;14.90;99.90;;;;;;5032040;28;50112;-80
2022/10/31 10:39:24;;;;;;;24.23;18.13;;;15.10;99.90;;;;;;5050136;28;38691;-79
2022/10/31 10:47:40;;;;;;;27.00;18.05;;;15.40;99.90;;;;;;5046426;28;40246;-80
2022/10/31 10:50:09;;;;;;;26.40;17.45;;;15.40;99.90;;;;;;5066379;28;38144;-79
2022/10/31 10:52:58;;;;;;;25.75;18.70;;;15.50;99.90;;;;;;5056434;28;37185;-80
2022/10/31 10:55:37;;;;;;;24.30;18.13;;;15.60;99.90;;;;;;5047468;28;38418;-81
2022/10/31 10:58:10;;;;;;;27.83;19.02;;;15.70;99.90;;;;;;5046782;28;38670;-81
2022/10/31 11:00:42;;;;;;;26.05;17.13;;;15.70;99.90;;;;;;5057650;28;48149;-81
2022/10/31 11:03:10;;;;;;;24.88;17.30;;;15.60;99.90;;;;;;5042114;28;37923;-81
2022/10/31 11:06:02;;;;;;;24.50;17.23;;;15.60;99.90;;;;;;5045495;28;38786;-81
2022/10/31 11:08:36;;;;;;;28.25;18.17;;;15.60;99.90;;;;;;5049622;28;39010;-81
2022/10/31 11:11:25;;;;;;;31.17;18.95;;;15.70;99.90;;;;;;5043207;28;39449;-80
2022/10/31 11:14:15;;;;;;;25.52;18.67;;;15.70;99.90;;;;;;5061725;28;48369;-81
2022/10/31 11:17:06;;;;;;;29.02;19.95;;;15.70;99.90;;;;;;5069239;28;48092;-81
2022/10/31 11:19:36;;;;;;;30.90;20.45;;;15.60;99.90;;;;;;5075799;28;47065;-82
2022/10/31 11:22:07;;;;;;;31.08;21.50;;;15.50;99.90;;;;;;5059788;28;38971;-81
2022/10/31 11:24:40;;;;;;;33.08;23.38;;;15.50;99.90;;;;;;5064698;28;49091;-81
2022/10/31 11:27:16;;;;;;;;;;;15.50;99.90;;;;;;5060209;28;38571;-80
2022/10/31 11:30:03;;;;;;;37.58;24.40;;;15.40;99.90;;;;;;5058120;28;39848;-81
2022/10/31 11:32:29;;;;;;;39.40;25.52;;;15.40;99.90;;;;;;5073272;28;37513;-81
2022/10/31 11:35:18;;;;;;;39.28;23.60;;;15.40;99.90;;;;;;5055557;28;37615;-81
2022/10/31 11:37:46;;;;;;;38.45;24.73;;;15.40;99.90;;;;;;5066664;28;47325;-81
2022/10/31 11:40:31;;;;;;;42.42;23.80;;;15.50;99.90;;;;;;5040434;28;36617;-81
2022/10/31 11:42:59;;;;;;;35.30;25.02;;;15.60;99.90;;;;;;5038646;28;37041;-81
2022/10/31 11:45:36;;;;;;;39.92;26.13;;;15.70;99.90;;;;;;5038176;28;38781;-81
2022/10/31 11:48:13;;;;;;;35.53;26.00;;;15.80;99.90;;;;;;5039832;28;40431;-80
2022/10/31 11:50:42;;;;;;;35.42;25.52;;;15.90;99.90;;;;;;5045083;28;50270;-80
2022/10/31 11:53:34;;;;;;;42.10;27.10;;;15.80;99.90;;;;;;5047037;28;38337;-81
2022/10/31 11:56:12;;;;;;;36.72;27.38;;;15.90;99.90;;;;;;5026285;28;39010;-81
2022/10/31 11:58:41;;;;;;;43.03;26.73;;;16.00;99.90;;;;;;5039758;28;47388;-81
2022/10/31 12:01:30;;;;;;;37.20;25.20;;;16.20;99.90;;;;;;5029191;28;39439;-77
2022/10/31 12:04:09;;;;;;;43.63;30.20;;;16.30;99.90;;;;;;5024281;28;37928;-78
2022/10/31 12:06:38;;;;;;;38.70;27.20;;;16.40;99.90;;;;;;5040808;28;47284;-78
2022/10/31 12:09:33;;;;;;;35.30;24.55;;;16.40;99.90;;;;;;5021771;28;37613;-77
2022/10/31 12:12:08;;;;;;;40.20;26.38;;;16.40;99.90;;;;;;5024870;28;39376;-77
2022/10/31 12:14:54;;;;;;;39.25;28.60;;;16.40;99.90;;;;;;5032289;28;48880;-79
2022/10/31 12:17:35;;;;;;;37.35;27.25;;;16.40;99.90;;;;;;5022266;28;39348;-80
2022/10/31 12:20:32;;;;;;;45.57;27.43;;;16.50;99.90;;;;;;5018431;28;39535;-81
2022/10/31 12:23:37;;;;;;;38.33;26.45;;;16.60;99.90;;;;;;5044270;28;48914;-81
2022/10/31 12:26:28;;;;;;;44.33;29.65;;;16.70;99.90;;;;;;5046290;28;50172;-82
2022/10/31 12:29:06;;;;;;;36.97;28.43;;;16.70;99.90;;;;;;5049023;28;49336;-81
2022/10/31 12:31:46;;;;;;;41.40;26.63;;;16.70;99.90;;;;;;5061473;28;47165;-78
2022/10/31 12:34:49;;;;;;;45.25;27.50;;;16.90;99.90;;;;;;5017255;28;38843;-81
2022/10/31 12:37:24;;;;;;;;;;;16.90;99.90;;;;;;5033319;28;39655;-78
2022/10/31 12:39:56;;;;;;;42.70;27.58;;;16.80;99.90;;;;;;5032779;28;37580;-78
2022/10/31 12:42:53;;;;;;;38.30;27.15;;;16.70;99.90;;;;;;5043704;28;37912;-78
2022/10/31 12:45:44;;;;;;;40.67;27.33;;;16.80;99.90;;;;;;5026183;28;38275;-79
2022/10/31 12:48:52;;;;;;;42.47;27.27;;;16.80;99.90;;;;;;5029989;28;37099;-79
2022/10/31 12:51:39;;;;;;;40.55;27.65;;;16.80;99.90;;;;;;5029933;28;37652;-78
2022/10/31 12:54:11;;;;;;;41.35;25.95;;;16.80;99.90;;;;;;5024967;28;38818;-76
2022/10/31 12:56:57;;;;;;;45.30;28.45;;;16.80;99.90;;;;;;5024137;28;38513;-77
2022/10/31 12:59:42;;;;;;;43.53;27.35;;;16.80;99.90;;;;;;5026875;28;38242;-78
2022/10/31 13:02:28;;;;;;;45.75;28.30;;;16.90;99.90;;;;;;5029556;28;37942;-77
2022/10/31 13:05:00;;;;;;;44.75;28.45;;;16.80;99.90;;;;;;5028007;28;39509;-78
2022/10/31 13:07:43;;;;;;;42.22;27.25;;;16.90;99.90;;;;;;5024483;28;37572;-78
2022/10/31 13:10:27;;;;;;;39.60;27.52;;;16.90;99.90;;;;;;5026560;28;37107;-77
2022/10/31 13:12:58;;;;;;;43.88;28.17;;;17.00;99.90;;;;;;5028464;28;37417;-77